WAT886 KPHX-K1G4
Flight info
| Callsign | WAT886 |
|---|---|
| Flight time | 0h 48m |
| Altitude | 20000 |
| Route | ZEPER2 RRSTA |
| Aircraft | PC12/L-SDFGRWY/S |
Departure
| Time | 2026-05-03 23:52 |
|---|---|
| Airport | Phoenix Sky Harbor International Airport (KPHX) |
Arrival
| Time | 2026-05-04 00:40 |
|---|---|
| Airport | Grand Canyon West Airport (K1G4) |
| Time | Latitude | Longitude | Altitude | Speed | Heading |
|---|---|---|---|---|---|
| 2026-05-03 22:59 | 33.42542 | -112.02010 | 1121 ft | 0 kts | 270° |
| 2026-05-03 23:45 | 33.42551 | -112.02029 | 1121 ft | 8 kts | 331° |
| 2026-05-03 23:45 | 33.42614 | -112.02125 | 1121 ft | 4 kts | 308° |
| 2026-05-03 23:45 | 33.42627 | -112.02125 | 1114 ft | 9 kts | 5° |
| 2026-05-03 23:45 | 33.42655 | -112.02121 | 1121 ft | 0 kts | 7° |
| 2026-05-03 23:46 | 33.42657 | -112.02120 | 1121 ft | 3 kts | 7° |
| 2026-05-03 23:46 | 33.42730 | -112.02114 | 1117 ft | 18 kts | 358° |
| 2026-05-03 23:46 | 33.42778 | -112.02011 | 1121 ft | 23 kts | 92° |
| 2026-05-03 23:46 | 33.42777 | -112.01855 | 1121 ft | 20 kts | 89° |
| 2026-05-03 23:47 | 33.42774 | -112.01636 | 1122 ft | 33 kts | 91° |
| 2026-05-03 23:47 | 33.42772 | -112.01469 | 1122 ft | 9 kts | 85° |
| 2026-05-03 23:47 | 33.42772 | -112.01314 | 1122 ft | 27 kts | 91° |
| 2026-05-03 23:47 | 33.42772 | -112.01061 | 1122 ft | 16 kts | 90° |
| 2026-05-03 23:48 | 33.42773 | -112.00909 | 1121 ft | 25 kts | 89° |
| 2026-05-03 23:48 | 33.42772 | -112.00696 | 1121 ft | 27 kts | 91° |
| 2026-05-03 23:48 | 33.42772 | -112.00647 | 1121 ft | 4 kts | 82° |
| 2026-05-03 23:48 | 33.42776 | -112.00560 | 1121 ft | 13 kts | 75° |
| 2026-05-03 23:49 | 33.42784 | -112.00543 | 1121 ft | 0 kts | 43° |
| 2026-05-03 23:51 | 33.42815 | -112.00526 | 1122 ft | 12 kts | 8° |
| 2026-05-03 23:51 | 33.42884 | -112.00580 | 1124 ft | 16 kts | 268° |
| 2026-05-03 23:51 | 33.42878 | -112.00941 | 1125 ft | 71 kts | 272° |
| 2026-05-03 23:52 | 33.42876 | -112.01656 | 1260 ft | 98 kts | 264° |
| 2026-05-03 23:52 | 33.42970 | -112.02515 | 1644 ft | 109 kts | 273° |
| 2026-05-03 23:52 | 33.43045 | -112.03516 | 1877 ft | 130 kts | 264° |
| 2026-05-03 23:52 | 33.43051 | -112.04599 | 2356 ft | 133 kts | 266° |
| 2026-05-03 23:53 | 33.43104 | -112.05718 | 2932 ft | 135 kts | 267° |
| 2026-05-03 23:53 | 33.43166 | -112.06824 | 3494 ft | 136 kts | 267° |
| 2026-05-03 23:53 | 33.43187 | -112.08004 | 4081 ft | 140 kts | 265° |
| 2026-05-03 23:53 | 33.43227 | -112.09146 | 4708 ft | 140 kts | 264° |
| 2026-05-03 23:54 | 33.43259 | -112.10320 | 5340 ft | 142 kts | 264° |
| 2026-05-03 23:54 | 33.43294 | -112.11506 | 6030 ft | 144 kts | 264° |
| 2026-05-03 23:54 | 33.43330 | -112.12715 | 6677 ft | 146 kts | 264° |
| 2026-05-03 23:54 | 33.43366 | -112.13931 | 7348 ft | 146 kts | 263° |
| 2026-05-03 23:55 | 33.43398 | -112.15210 | 7816 ft | 166 kts | 264° |
| 2026-05-03 23:55 | 33.43606 | -112.16694 | 8093 ft | 200 kts | 283° |
| 2026-05-03 23:55 | 33.44384 | -112.18220 | 8236 ft | 232 kts | 307° |
| 2026-05-03 23:55 | 33.45757 | -112.19350 | 8511 ft | 245 kts | 334° |
| 2026-05-03 23:56 | 33.47444 | -112.19709 | 8904 ft | 250 kts | 357° |
| 2026-05-03 23:56 | 33.49191 | -112.19671 | 9267 ft | 252 kts | 359° |
| 2026-05-03 23:56 | 33.50948 | -112.19621 | 9679 ft | 252 kts | 359° |
| 2026-05-03 23:56 | 33.52692 | -112.19600 | 9999 ft | 255 kts | 358° |
| 2026-05-03 23:57 | 33.54462 | -112.19724 | 10333 ft | 255 kts | 352° |
| 2026-05-03 23:57 | 33.56240 | -112.19891 | 10652 ft | 258 kts | 353° |
| 2026-05-03 23:57 | 33.58035 | -112.20047 | 10996 ft | 259 kts | 353° |
| 2026-05-03 23:57 | 33.59838 | -112.20205 | 11302 ft | 261 kts | 353° |
| 2026-05-03 23:58 | 33.61646 | -112.20364 | 11625 ft | 261 kts | 353° |
| 2026-05-03 23:58 | 33.63431 | -112.20707 | 11920 ft | 260 kts | 341° |
| 2026-05-03 23:58 | 33.65181 | -112.21293 | 12208 ft | 262 kts | 341° |
| 2026-05-03 23:58 | 33.66945 | -112.21861 | 12512 ft | 263 kts | 341° |
| 2026-05-03 23:59 | 33.68719 | -112.22425 | 12785 ft | 265 kts | 341° |
| 2026-05-03 23:59 | 33.68787 | -112.22446 | 12793 ft | 265 kts | 341° |
| 2026-05-04 00:00 | 33.69922 | -112.22813 | 12894 ft | 270 kts | 340° |
| 2026-05-04 00:00 | 33.71744 | -112.23404 | 13155 ft | 271 kts | 340° |
| 2026-05-04 00:00 | 33.73576 | -112.23992 | 13414 ft | 273 kts | 340° |
| 2026-05-04 00:01 | 33.75415 | -112.24585 | 13643 ft | 274 kts | 340° |
| 2026-05-04 00:01 | 33.77264 | -112.25182 | 13878 ft | 275 kts | 340° |
| 2026-05-04 00:01 | 33.79111 | -112.25778 | 14107 ft | 275 kts | 339° |
| 2026-05-04 00:01 | 33.80964 | -112.26376 | 14365 ft | 275 kts | 339° |
| 2026-05-04 00:02 | 33.82788 | -112.26965 | 14600 ft | 275 kts | 339° |
| 2026-05-04 00:02 | 33.84635 | -112.27563 | 14820 ft | 275 kts | 339° |
| 2026-05-04 00:02 | 33.86480 | -112.28160 | 15042 ft | 275 kts | 339° |
| 2026-05-04 00:02 | 33.88326 | -112.28757 | 15273 ft | 275 kts | 339° |
| 2026-05-04 00:03 | 33.90174 | -112.29355 | 15483 ft | 275 kts | 338° |
| 2026-05-04 00:03 | 33.92021 | -112.29953 | 15689 ft | 275 kts | 338° |
| 2026-05-04 00:03 | 33.93867 | -112.30551 | 15894 ft | 275 kts | 338° |
| 2026-05-04 00:03 | 33.95718 | -112.31151 | 16098 ft | 275 kts | 338° |
| 2026-05-04 00:04 | 33.97563 | -112.31749 | 16325 ft | 275 kts | 338° |
| 2026-05-04 00:04 | 33.99407 | -112.32349 | 16526 ft | 275 kts | 338° |
| 2026-05-04 00:04 | 34.01255 | -112.32953 | 16691 ft | 275 kts | 337° |
| 2026-05-04 00:04 | 34.02983 | -112.33837 | 16869 ft | 267 kts | 322° |
| 2026-05-04 00:05 | 34.04458 | -112.35138 | 17044 ft | 260 kts | 312° |
| 2026-05-04 00:05 | 34.05375 | -112.36068 | 17182 ft | 259 kts | 312° |
| 2026-05-04 00:05 | 34.06765 | -112.37456 | 17366 ft | 260 kts | 312° |
| 2026-05-04 00:05 | 34.08152 | -112.38846 | 17558 ft | 260 kts | 312° |
| 2026-05-04 00:06 | 34.09538 | -112.40241 | 17743 ft | 259 kts | 312° |
| 2026-05-04 00:06 | 34.10927 | -112.41639 | 17949 ft | 260 kts | 311° |
| 2026-05-04 00:06 | 34.12316 | -112.43036 | 18126 ft | 260 kts | 311° |
| 2026-05-04 00:06 | 34.13708 | -112.44435 | 18294 ft | 260 kts | 311° |
| 2026-05-04 00:07 | 34.15098 | -112.45831 | 18444 ft | 260 kts | 310° |
| 2026-05-04 00:07 | 34.16491 | -112.47233 | 18601 ft | 260 kts | 311° |
| 2026-05-04 00:07 | 34.17877 | -112.48635 | 18770 ft | 260 kts | 310° |
| 2026-05-04 00:07 | 34.19265 | -112.50035 | 18926 ft | 260 kts | 311° |
| 2026-05-04 00:08 | 34.20653 | -112.51431 | 19072 ft | 260 kts | 311° |
| 2026-05-04 00:08 | 34.22042 | -112.52832 | 19225 ft | 260 kts | 310° |
| 2026-05-04 00:08 | 34.23428 | -112.54231 | 19358 ft | 260 kts | 310° |
| 2026-05-04 00:08 | 34.24818 | -112.55635 | 19478 ft | 260 kts | 310° |
| 2026-05-04 00:09 | 34.26204 | -112.57034 | 19601 ft | 260 kts | 310° |
| 2026-05-04 00:09 | 34.27577 | -112.58424 | 19688 ft | 260 kts | 310° |
| 2026-05-04 00:09 | 34.28966 | -112.59823 | 19789 ft | 259 kts | 310° |
| 2026-05-04 00:09 | 34.30348 | -112.61221 | 19896 ft | 259 kts | 310° |
| 2026-05-04 00:10 | 34.31727 | -112.62620 | 20007 ft | 259 kts | 310° |
| 2026-05-04 00:10 | 34.33112 | -112.64024 | 20047 ft | 261 kts | 310° |
| 2026-05-04 00:10 | 34.34511 | -112.65443 | 20059 ft | 263 kts | 310° |
| 2026-05-04 00:10 | 34.35925 | -112.66874 | 20003 ft | 266 kts | 310° |
| 2026-05-04 00:11 | 34.37341 | -112.68304 | 19887 ft | 264 kts | 310° |
| 2026-05-04 00:11 | 34.38742 | -112.69720 | 19845 ft | 259 kts | 310° |
| 2026-05-04 00:11 | 34.40120 | -112.71123 | 19843 ft | 259 kts | 310° |
| 2026-05-04 00:11 | 34.41503 | -112.72531 | 19831 ft | 261 kts | 310° |
| 2026-05-04 00:12 | 34.42897 | -112.73946 | 19833 ft | 261 kts | 310° |
| 2026-05-04 00:12 | 34.44292 | -112.75362 | 19835 ft | 262 kts | 310° |
| 2026-05-04 00:12 | 34.45689 | -112.76782 | 19838 ft | 262 kts | 310° |
| 2026-05-04 00:12 | 34.47088 | -112.78204 | 19839 ft | 262 kts | 310° |
| 2026-05-04 00:13 | 34.48483 | -112.79622 | 19844 ft | 261 kts | 310° |
| 2026-05-04 00:13 | 34.49873 | -112.81038 | 19843 ft | 262 kts | 310° |
| 2026-05-04 00:13 | 34.51265 | -112.82453 | 19831 ft | 261 kts | 310° |
| 2026-05-04 00:13 | 34.52657 | -112.83873 | 19834 ft | 261 kts | 310° |
| 2026-05-04 00:14 | 34.54048 | -112.85296 | 19833 ft | 263 kts | 310° |
| 2026-05-04 00:14 | 34.55453 | -112.86728 | 19834 ft | 264 kts | 310° |
| 2026-05-04 00:14 | 34.56859 | -112.88159 | 19830 ft | 264 kts | 310° |
| 2026-05-04 00:14 | 34.58247 | -112.89574 | 19830 ft | 264 kts | 310° |
| 2026-05-04 00:15 | 34.59648 | -112.91006 | 19825 ft | 261 kts | 309° |
| 2026-05-04 00:15 | 34.61031 | -112.92414 | 19785 ft | 257 kts | 309° |
| 2026-05-04 00:15 | 34.62425 | -112.93831 | 19828 ft | 261 kts | 309° |
| 2026-05-04 00:15 | 34.63812 | -112.95273 | 19833 ft | 265 kts | 309° |
| 2026-05-04 00:16 | 34.65206 | -112.96697 | 19847 ft | 265 kts | 310° |
| 2026-05-04 00:16 | 34.66620 | -112.98131 | 19813 ft | 262 kts | 310° |
| 2026-05-04 00:16 | 34.68010 | -112.99552 | 19812 ft | 261 kts | 309° |
| 2026-05-04 00:16 | 34.69393 | -113.00972 | 19813 ft | 259 kts | 309° |
| 2026-05-04 00:17 | 34.70779 | -113.02392 | 19820 ft | 262 kts | 310° |
| 2026-05-04 00:17 | 34.72182 | -113.03837 | 19829 ft | 265 kts | 309° |
| 2026-05-04 00:17 | 34.73593 | -113.05290 | 19823 ft | 266 kts | 310° |
| 2026-05-04 00:17 | 34.75040 | -113.06690 | 19816 ft | 269 kts | 316° |
| 2026-05-04 00:18 | 34.76710 | -113.07782 | 19812 ft | 276 kts | 326° |
| 2026-05-04 00:18 | 34.78469 | -113.08724 | 19812 ft | 276 kts | 326° |
| 2026-05-04 00:18 | 34.80208 | -113.09683 | 19813 ft | 275 kts | 325° |
| 2026-05-04 00:18 | 34.81954 | -113.10650 | 19812 ft | 277 kts | 326° |
| 2026-05-04 00:19 | 34.83717 | -113.11614 | 19814 ft | 279 kts | 326° |
| 2026-05-04 00:19 | 34.85494 | -113.12586 | 19816 ft | 280 kts | 326° |
| 2026-05-04 00:19 | 34.87277 | -113.13558 | 19818 ft | 279 kts | 326° |
| 2026-05-04 00:19 | 34.89040 | -113.14529 | 19816 ft | 278 kts | 326° |
| 2026-05-04 00:20 | 34.90801 | -113.15496 | 19815 ft | 277 kts | 326° |
| 2026-05-04 00:20 | 34.92559 | -113.16462 | 19816 ft | 277 kts | 326° |
| 2026-05-04 00:20 | 34.94320 | -113.17433 | 19834 ft | 278 kts | 326° |
| 2026-05-04 00:20 | 34.96084 | -113.18404 | 19820 ft | 278 kts | 326° |
| 2026-05-04 00:21 | 34.97846 | -113.19370 | 19822 ft | 278 kts | 326° |
| 2026-05-04 00:21 | 34.99610 | -113.20341 | 19822 ft | 278 kts | 326° |
| 2026-05-04 00:21 | 35.01374 | -113.21313 | 19821 ft | 278 kts | 326° |
| 2026-05-04 00:21 | 35.03138 | -113.22286 | 19826 ft | 279 kts | 326° |
| 2026-05-04 00:22 | 35.04904 | -113.23259 | 19827 ft | 278 kts | 326° |
| 2026-05-04 00:22 | 35.06646 | -113.24219 | 19804 ft | 278 kts | 326° |
| 2026-05-04 00:22 | 35.08404 | -113.25191 | 19804 ft | 278 kts | 326° |
| 2026-05-04 00:22 | 35.10155 | -113.26156 | 19635 ft | 267 kts | 326° |
| 2026-05-04 00:23 | 35.11860 | -113.27095 | 18836 ft | 269 kts | 327° |
| 2026-05-04 00:23 | 35.13563 | -113.28038 | 18051 ft | 267 kts | 327° |
| 2026-05-04 00:23 | 35.15204 | -113.28938 | 17670 ft | 248 kts | 327° |
| 2026-05-04 00:23 | 35.16813 | -113.29836 | 17463 ft | 262 kts | 328° |
| 2026-05-04 00:24 | 35.18504 | -113.30786 | 17265 ft | 273 kts | 328° |
| 2026-05-04 00:24 | 35.20254 | -113.31749 | 17076 ft | 277 kts | 329° |
| 2026-05-04 00:24 | 35.22007 | -113.32709 | 16876 ft | 275 kts | 329° |
| 2026-05-04 00:24 | 35.23749 | -113.33674 | 16672 ft | 274 kts | 329° |
| 2026-05-04 00:25 | 35.25486 | -113.34642 | 16468 ft | 274 kts | 328° |
| 2026-05-04 00:25 | 35.27219 | -113.35602 | 16268 ft | 274 kts | 329° |
| 2026-05-04 00:25 | 35.28955 | -113.36564 | 16048 ft | 273 kts | 329° |
| 2026-05-04 00:25 | 35.30679 | -113.37523 | 15853 ft | 272 kts | 329° |
| 2026-05-04 00:26 | 35.32404 | -113.38482 | 15653 ft | 272 kts | 329° |
| 2026-05-04 00:26 | 35.34125 | -113.39436 | 15457 ft | 271 kts | 329° |
| 2026-05-04 00:26 | 35.35837 | -113.40388 | 15261 ft | 270 kts | 328° |
| 2026-05-04 00:26 | 35.37547 | -113.41338 | 15068 ft | 269 kts | 328° |
| 2026-05-04 00:27 | 35.39248 | -113.42283 | 14876 ft | 268 kts | 329° |
| 2026-05-04 00:27 | 35.40945 | -113.43232 | 14695 ft | 270 kts | 330° |
| 2026-05-04 00:27 | 35.42671 | -113.44194 | 14505 ft | 273 kts | 330° |
| 2026-05-04 00:27 | 35.44394 | -113.45150 | 14317 ft | 270 kts | 330° |
| 2026-05-04 00:28 | 35.46084 | -113.46087 | 14130 ft | 271 kts | 329° |
| 2026-05-04 00:28 | 35.47816 | -113.47064 | 13946 ft | 270 kts | 330° |
| 2026-05-04 00:28 | 35.49496 | -113.48004 | 13755 ft | 269 kts | 329° |
| 2026-05-04 00:28 | 35.51216 | -113.48958 | 13567 ft | 271 kts | 330° |
| 2026-05-04 00:29 | 35.52914 | -113.49908 | 13342 ft | 267 kts | 330° |
| 2026-05-04 00:29 | 35.54611 | -113.50856 | 13123 ft | 269 kts | 330° |
| 2026-05-04 00:29 | 35.56315 | -113.51808 | 12921 ft | 268 kts | 329° |
| 2026-05-04 00:29 | 35.57993 | -113.52747 | 12714 ft | 263 kts | 330° |
| 2026-05-04 00:30 | 35.59656 | -113.53678 | 12512 ft | 265 kts | 330° |
| 2026-05-04 00:30 | 35.61330 | -113.54617 | 12301 ft | 264 kts | 330° |
| 2026-05-04 00:30 | 35.62997 | -113.55545 | 12104 ft | 262 kts | 330° |
| 2026-05-04 00:30 | 35.64658 | -113.56476 | 11905 ft | 262 kts | 329° |
| 2026-05-04 00:31 | 35.66313 | -113.57407 | 11708 ft | 261 kts | 330° |
| 2026-05-04 00:31 | 35.67964 | -113.58333 | 11510 ft | 261 kts | 330° |
| 2026-05-04 00:31 | 35.69619 | -113.59261 | 11309 ft | 261 kts | 331° |
| 2026-05-04 00:31 | 35.71273 | -113.60189 | 11116 ft | 261 kts | 329° |
| 2026-05-04 00:32 | 35.72919 | -113.61118 | 10920 ft | 261 kts | 330° |
| 2026-05-04 00:32 | 35.74571 | -113.62033 | 10734 ft | 259 kts | 331° |
| 2026-05-04 00:32 | 35.76204 | -113.62958 | 10518 ft | 257 kts | 330° |
| 2026-05-04 00:32 | 35.77831 | -113.63886 | 10309 ft | 257 kts | 329° |
| 2026-05-04 00:33 | 35.79449 | -113.64787 | 10134 ft | 255 kts | 331° |
| 2026-05-04 00:33 | 35.82666 | -113.66601 | 9747 ft | 254 kts | 329° |
| 2026-05-04 00:33 | 35.84254 | -113.67471 | 9572 ft | 249 kts | 329° |
| 2026-05-04 00:34 | 35.85831 | -113.68378 | 9379 ft | 253 kts | 329° |
| 2026-05-04 00:34 | 35.87432 | -113.69287 | 9153 ft | 249 kts | 330° |
| 2026-05-04 00:34 | 35.88992 | -113.70137 | 8980 ft | 248 kts | 331° |
| 2026-05-04 00:34 | 35.90566 | -113.71040 | 8955 ft | 252 kts | 330° |
| 2026-05-04 00:35 | 35.92165 | -113.71954 | 8965 ft | 251 kts | 332° |
| 2026-05-04 00:35 | 35.93726 | -113.72839 | 8969 ft | 241 kts | 333° |
| 2026-05-04 00:35 | 35.95242 | -113.73687 | 8952 ft | 235 kts | 330° |
| 2026-05-04 00:35 | 35.96753 | -113.74431 | 9184 ft | 230 kts | 336° |
| 2026-05-04 00:36 | 35.98211 | -113.75082 | 9559 ft | 231 kts | 333° |
| 2026-05-04 00:36 | 35.99707 | -113.75957 | 9449 ft | 247 kts | 327° |
| 2026-05-04 00:36 | 36.01318 | -113.76881 | 8965 ft | 258 kts | 336° |
| 2026-05-04 00:36 | 36.03020 | -113.77634 | 8071 ft | 254 kts | 338° |
| 2026-05-04 00:37 | 36.04577 | -113.78196 | 8078 ft | 221 kts | 338° |
| 2026-05-04 00:37 | 36.05998 | -113.78724 | 7833 ft | 201 kts | 335° |
| 2026-05-04 00:37 | 36.07162 | -113.79549 | 7428 ft | 175 kts | 293° |
| 2026-05-04 00:37 | 36.06732 | -113.80281 | 6628 ft | 140 kts | 187° |
| 2026-05-04 00:38 | 36.05859 | -113.80501 | 6152 ft | 121 kts | 197° |
| 2026-05-04 00:38 | 36.05064 | -113.80774 | 5882 ft | 118 kts | 195° |
| 2026-05-04 00:38 | 36.04282 | -113.80980 | 5694 ft | 104 kts | 192° |
| 2026-05-04 00:38 | 36.03617 | -113.81119 | 5374 ft | 97 kts | 187° |
| 2026-05-04 00:39 | 36.02877 | -113.81200 | 5221 ft | 114 kts | 192° |
| 2026-05-04 00:39 | 36.02098 | -113.81288 | 5275 ft | 111 kts | 193° |
| 2026-05-04 00:39 | 36.01393 | -113.81380 | 5190 ft | 97 kts | 193° |
| 2026-05-04 00:39 | 36.00721 | -113.81492 | 4950 ft | 97 kts | 189° |
| 2026-05-04 00:40 | 36.00081 | -113.81530 | 4781 ft | 86 kts | 191° |
| 2026-05-04 00:40 | 35.99521 | -113.81592 | 4667 ft | 75 kts | 191° |
| 2026-05-04 00:40 | 35.99055 | -113.81656 | 4646 ft | 53 kts | 192° |
| 2026-05-04 00:40 | 35.98820 | -113.81670 | 4654 ft | 31 kts | 188° |
| 2026-05-04 00:41 | 35.98594 | -113.81699 | 4657 ft | 27 kts | 186° |
| 2026-05-04 00:41 | 35.98494 | -113.81736 | 4666 ft | 14 kts | 253° |
| 2026-05-04 00:41 | 35.98490 | -113.81844 | 4660 ft | 12 kts | 219° |
| 2026-05-04 00:41 | 35.98441 | -113.81903 | 4664 ft | 13 kts | 248° |
| 2026-05-04 00:42 | 35.98454 | -113.81980 | 4659 ft | 4 kts | 326° |
| 2026-05-04 00:42 | 35.98470 | -113.81981 | 4659 ft | 0 kts | 8° |